Terminal Aerodrome Forecast
Issued by NWS Columbia, SC

Home | Current Version | Previous Version | Text Only | Print | Product List | Glossary On
Versions: 1 2 3 4 5 6 7 8 9 10 11 12 13 14 15 16 17 18 19 20 21 22 23 24 25 26 27 28 29 30 31 32 33 34 35 36 37 38 39 40 41 42 43
000
FTAK31 PAJN 282300
TAFAGS
TAF
PAGS 282339Z 2900/2924 VRB03KT 1SM -SN BR OVC006
      TEMPO 2900/2904 3SM -SN SCT006 OVC015
     FM290400 VRB05KT 2SM -RA BR BKN006 OVC010 WS020/12025KT
     FM291800 14006KT 4SM -RASN BR OVC025
      AMD LTD TO CLD VIS AND WIND=

USA.gov is the U.S. government's official web portal to all federal, state and local government web resources and services.